Time;durP1;ratioP1;P1;durP2;ratioP2;P2;SDS_P1;SDS_P2;PMS_P1;PMS_P2;Temp;Humidity;BMP_temperature;BMP_pressure;BME280_temperature;BME280_humidity;BME280_pressure;Samples;Min_cycle;Max_cycle;Signal;HPM_P1;HPM_P2
2022/04/07 00:00:46;;;;;;;6.43;3.92;;;;;;;;;;5109922;28;20092;-73
2022/04/07 00:03:11;;;;;;;7.97;4.72;;;;;;;;;;5111901;28;20051;-73
2022/04/07 00:05:37;;;;;;;8.43;4.55;;;;;;;;;;5110676;28;20399;-73
2022/04/07 00:08:02;;;;;;;7.53;4.22;;;;;;;;;;5109855;28;20107;-73
2022/04/07 00:10:27;;;;;;;5.70;3.83;;;;;;;;;;5109404;28;20488;-73
2022/04/07 00:12:52;;;;;;;7.57;4.60;;;;;;;;;;5109424;28;20020;-73
2022/04/07 00:15:18;;;;;;;8.05;4.13;;;;;;;;;;5110735;28;20260;-73
2022/04/07 00:17:43;;;;;;;8.23;4.32;;;;;;;;;;5110621;28;20078;-73
2022/04/07 00:20:08;;;;;;;6.45;4.05;;;;;;;;;;5110654;28;20143;-73
2022/04/07 00:22:34;;;;;;;5.38;3.45;;;;;;;;;;5109524;28;20488;-80
2022/04/07 00:24:59;;;;;;;7.45;3.08;;;;;;;;;;5110520;28;20464;-72
2022/04/07 00:27:24;;;;;;;7.97;2.80;;;;;;;;;;5110365;28;20110;-74
2022/04/07 00:29:50;;;;;;;5.28;2.63;;;;;;;;;;5109306;28;20054;-73
2022/04/07 00:32:15;;;;;;;4.03;2.70;;;;;;;;;;5110509;28;20100;-73
2022/04/07 00:34:44;;;;;;;4.03;2.63;;;;;;;;;;5110324;28;20027;-72
2022/04/07 00:37:09;;;;;;;6.97;2.58;;;;;;;;;;5110084;28;20051;-73
2022/04/07 00:39:34;;;;;;;2.50;2.00;;;;;;;;;;5110775;28;20115;-73
2022/04/07 00:42:00;;;;;;;4.72;2.22;;;;;;;;;;5110924;28;20024;-73
2022/04/07 00:44:27;;;;;;;3.35;2.13;;;;;;;;;;5110421;28;20035;-73
2022/04/07 00:46:52;;;;;;;4.57;3.03;;;;;;;;;;5109617;28;20103;-72
2022/04/07 00:49:18;;;;;;;3.38;2.38;;;;;;;;;;5110753;28;20149;-74
2022/04/07 00:51:43;;;;;;;3.85;1.98;;;;;;;;;;5110861;28;20031;-73
2022/04/07 00:54:09;;;;;;;3.47;2.40;;;;;;;;;;5110643;28;20404;-74
2022/04/07 00:56:35;;;;;;;3.20;1.88;;;;;;;;;;5113590;28;20020;-75
2022/04/07 00:59:01;;;;;;;3.92;1.85;;;;;;;;;;5120743;28;20084;-74
2022/04/07 01:01:28;;;;;;;3.47;2.30;;;;;;;;;;5134325;27;20019;-73
2022/04/07 01:03:54;;;;;;;2.65;1.70;;;;;;;;;;5134594;27;20033;-73
2022/04/07 01:06:19;;;;;;;3.80;2.30;;;;;;;;;;5134726;27;20011;-74
2022/04/07 01:08:44;;;;;;;2.85;1.92;;;;;;;;;;5134481;27;20015;-72
2022/04/07 01:11:10;;;;;;;2.85;1.92;;;;;;;;;;5133783;27;20028;-74
2022/04/07 01:13:44;;;;;;;2.72;1.80;;;;;;;;;;5134520;27;20431;-74
2022/04/07 01:16:09;;;;;;;3.63;2.40;;;;;;;;;;5134275;27;20063;-73
2022/04/07 01:18:35;;;;;;;3.80;2.10;;;;;;;;;;5134233;27;20073;-72
2022/04/07 01:21:00;;;;;;;4.70;2.58;;;;;;;;;;5127102;27;20467;-74
2022/04/07 01:23:26;;;;;;;5.72;2.45;;;;;;;;;;5112447;28;20472;-73
2022/04/07 01:25:52;;;;;;;2.70;1.90;;;;;;;;;;5113341;27;20031;-74
2022/04/07 01:28:17;;;;;;;3.30;2.40;;;;;;;;;;5113431;28;20028;-73
2022/04/07 01:30:42;;;;;;;4.10;2.40;;;;;;;;;;5114791;28;20007;-79
2022/04/07 01:33:07;;;;;;;3.70;2.03;;;;;;;;;;5114144;28;20023;-72
2022/04/07 01:35:33;;;;;;;3.25;2.00;;;;;;;;;;5113603;28;20058;-73
2022/04/07 01:37:58;;;;;;;3.40;1.92;;;;;;;;;;5113398;28;20023;-72
2022/04/07 01:40:25;;;;;;;2.72;1.90;;;;;;;;;;5113721;28;20115;-72
2022/04/07 01:42:52;;;;;;;3.47;2.00;;;;;;;;;;5113492;28;20049;-72
2022/04/07 01:45:18;;;;;;;3.75;1.92;;;;;;;;;;5113454;28;20023;-72
2022/04/07 01:47:43;;;;;;;2.45;1.63;;;;;;;;;;5113169;28;20020;-80
2022/04/07 01:50:09;;;;;;;2.58;1.88;;;;;;;;;;5113359;28;20054;-73
2022/04/07 01:52:37;;;;;;;3.80;1.83;;;;;;;;;;5111622;28;20115;-74
2022/04/07 01:55:03;;;;;;;2.45;1.70;;;;;;;;;;5112265;28;20031;-74
2022/04/07 01:57:28;;;;;;;2.33;1.70;;;;;;;;;;5112309;27;20098;-73
2022/04/07 01:59:54;;;;;;;2.60;1.75;;;;;;;;;;5113336;28;20119;-74
2022/04/07 02:02:21;;;;;;;1.70;1.42;;;;;;;;;;5112840;28;20012;-73
2022/04/07 02:05:10;;;;;;;1.45;1.30;;;;;;;;;;5113195;28;20023;-74
2022/04/07 02:07:36;;;;;;;3.15;1.60;;;;;;;;;;5113205;28;20102;-73
2022/04/07 02:10:03;;;;;;;2.25;1.67;;;;;;;;;;5113257;28;20354;-73
2022/04/07 02:12:29;;;;;;;2.78;2.03;;;;;;;;;;5112408;28;20026;-73
2022/04/07 02:14:55;;;;;;;2.58;1.70;;;;;;;;;;5112862;28;20492;-73
2022/04/07 02:17:20;;;;;;;2.35;1.50;;;;;;;;;;5111416;28;20496;-73
2022/04/07 02:19:55;;;;;;;1.98;1.50;;;;;;;;;;5111625;28;20035;-73
2022/04/07 02:22:21;;;;;;;3.45;1.70;;;;;;;;;;5112686;28;20012;-79
2022/04/07 02:24:47;;;;;;;3.10;1.90;;;;;;;;;;5113330;28;20481;-73
2022/04/07 02:27:12;;;;;;;3.13;1.70;;;;;;;;;;5112231;28;20049;-73
2022/04/07 02:29:38;;;;;;;2.17;1.70;;;;;;;;;;5112445;27;20468;-72
2022/04/07 02:32:04;;;;;;;2.30;1.73;;;;;;;;;;5111859;28;20019;-73
2022/04/07 02:34:29;;;;;;;3.03;2.13;;;;;;;;;;5110649;28;20023;-73
2022/04/07 02:36:54;;;;;;;3.25;1.48;;;;;;;;;;5112579;28;20028;-73
2022/04/07 02:39:20;;;;;;;1.67;1.42;;;;;;;;;;5112312;28;20028;-73
2022/04/07 02:41:45;;;;;;;1.73;1.50;;;;;;;;;;5111359;28;20023;-74
2022/04/07 02:44:10;;;;;;;2.92;1.88;;;;;;;;;;5112309;28;20024;-72
2022/04/07 02:46:35;;;;;;;2.15;1.55;;;;;;;;;;5112228;28;20441;-73
2022/04/07 02:49:01;;;;;;;2.28;1.63;;;;;;;;;;5111796;28;20030;-77
2022/04/07 02:51:26;;;;;;;1.88;1.42;;;;;;;;;;5111823;28;20026;-73
2022/04/07 02:53:57;;;;;;;2.75;1.50;;;;;;;;;;5111927;27;20042;-74
2022/04/07 02:56:22;;;;;;;2.47;1.75;;;;;;;;;;5112123;27;20027;-73
2022/04/07 02:58:48;;;;;;;2.38;1.58;;;;;;;;;;5111801;28;20077;-73
2022/04/07 03:01:14;;;;;;;3.72;1.80;;;;;;;;;;5110747;28;20034;-72
2022/04/07 03:03:39;;;;;;;2.83;1.65;;;;;;;;;;5112216;27;20023;-72
2022/04/07 03:06:05;;;;;;;2.15;1.40;;;;;;;;;;5112716;28;20029;-73
2022/04/07 03:08:32;;;;;;;3.53;1.90;;;;;;;;;;5115703;28;20016;-74
2022/04/07 03:10:58;;;;;;;2.33;1.63;;;;;;;;;;5115610;28;20046;-74
2022/04/07 03:13:24;;;;;;;1.67;1.50;;;;;;;;;;5111833;28;20473;-74
2022/04/07 03:15:49;;;;;;;2.53;1.65;;;;;;;;;;5111420;28;20093;-73
2022/04/07 03:18:14;;;;;;;1.95;1.50;;;;;;;;;;5111567;28;20084;-71
2022/04/07 03:20:40;;;;;;;2.80;1.73;;;;;;;;;;5113417;28;20058;-73
2022/04/07 03:23:05;;;;;;;3.15;1.70;;;;;;;;;;5110232;28;20016;-73
2022/04/07 03:25:30;;;;;;;2.55;1.55;;;;;;;;;;5111727;28;20031;-73
2022/04/07 03:27:56;;;;;;;4.93;2.33;;;;;;;;;;5110388;28;20484;-73
2022/04/07 03:30:21;;;;;;;2.35;1.65;;;;;;;;;;5111364;28;20753;-73
2022/04/07 03:32:46;;;;;;;3.70;1.75;;;;;;;;;;5110704;28;20081;-73
2022/04/07 03:35:12;;;;;;;2.13;1.70;;;;;;;;;;5111584;28;20076;-73
2022/04/07 03:37:38;;;;;;;2.28;1.70;;;;;;;;;;5111316;28;20487;-72
2022/04/07 03:40:03;;;;;;;1.67;1.45;;;;;;;;;;5110233;28;20032;-73
2022/04/07 03:42:28;;;;;;;3.03;1.70;;;;;;;;;;5111804;28;20027;-73
2022/04/07 03:44:54;;;;;;;2.87;1.80;;;;;;;;;;5110822;28;20056;-72
2022/04/07 03:47:19;;;;;;;1.83;1.50;;;;;;;;;;5110938;28;20248;-74
2022/04/07 03:49:44;;;;;;;2.93;1.90;;;;;;;;;;5111345;28;20275;-73
2022/04/07 03:52:09;;;;;;;2.92;1.70;;;;;;;;;;5111200;28;20248;-74
2022/04/07 03:54:35;;;;;;;1.65;1.50;;;;;;;;;;5111362;28;20020;-74
2022/04/07 03:57:01;;;;;;;1.85;1.60;;;;;;;;;;5111254;28;20100;-73
2022/04/07 03:59:26;;;;;;;2.15;1.58;;;;;;;;;;5109714;28;20032;-73
2022/04/07 04:01:51;;;;;;;6.97;3.35;;;;;;;;;;5111278;28;20031;-72
2022/04/07 04:04:20;;;;;;;3.78;2.17;;;;;;;;;;5111185;28;21452;-73
2022/04/07 04:06:45;;;;;;;4.25;2.05;;;;;;;;;;5111485;28;20066;-74
2022/04/07 04:09:10;;;;;;;2.33;1.75;;;;;;;;;;5109824;28;20482;-74
2022/04/07 04:11:35;;;;;;;2.57;1.93;;;;;;;;;;5111538;28;20019;-76
2022/04/07 04:14:01;;;;;;;2.40;1.98;;;;;;;;;;5112089;28;20272;-77
2022/04/07 04:16:27;;;;;;;2.88;1.83;;;;;;;;;;5111826;28;20122;-74
2022/04/07 04:18:52;;;;;;;2.40;1.85;;;;;;;;;;5111223;28;20035;-73
2022/04/07 04:21:17;;;;;;;3.03;1.92;;;;;;;;;;5110046;28;20124;-74
2022/04/07 04:23:42;;;;;;;3.97;2.20;;;;;;;;;;5128874;28;20031;-73
2022/04/07 04:26:08;;;;;;;4.20;1.83;;;;;;;;;;5131552;28;20512;-73
2022/04/07 04:28:33;;;;;;;5.68;2.90;;;;;;;;;;5131633;28;20432;-74
2022/04/07 04:30:58;;;;;;;3.58;2.05;;;;;;;;;;5131579;28;20019;-73
2022/04/07 04:33:23;;;;;;;2.33;1.90;;;;;;;;;;5131328;28;20452;-74
2022/04/07 04:35:49;;;;;;;2.58;1.92;;;;;;;;;;5127577;27;20088;-73
2022/04/07 04:38:14;;;;;;;2.75;2.05;;;;;;;;;;5116885;27;20020;-74
2022/04/07 04:40:39;;;;;;;3.17;2.47;;;;;;;;;;5133708;27;20037;-74
2022/04/07 04:43:05;;;;;;;4.30;2.20;;;;;;;;;;5135243;27;20023;-74
2022/04/07 04:45:30;;;;;;;2.30;1.70;;;;;;;;;;5135366;27;20262;-74
2022/04/07 04:47:55;;;;;;;2.55;1.85;;;;;;;;;;5134873;27;20260;-75
2022/04/07 04:50:21;;;;;;;4.30;2.70;;;;;;;;;;5135355;27;20015;-72
2022/04/07 04:52:46;;;;;;;4.93;3.03;;;;;;;;;;5135293;27;20023;-74
2022/04/07 04:55:12;;;;;;;3.88;2.08;;;;;;;;;;5134456;27;20016;-77
2022/04/07 04:57:37;;;;;;;2.55;1.98;;;;;;;;;;5135540;27;20053;-76
2022/04/07 05:00:03;;;;;;;2.75;2.15;;;;;;;;;;5135347;27;20019;-76
2022/04/07 05:02:29;;;;;;;3.20;2.20;;;;;;;;;;5135039;27;20019;-74
2022/04/07 05:04:54;;;;;;;5.30;2.53;;;;;;;;;;5133209;27;20022;-76
2022/04/07 05:07:19;;;;;;;3.38;2.42;;;;;;;;;;5134893;27;20031;-74
2022/04/07 05:09:45;;;;;;;3.22;2.17;;;;;;;;;;5136721;27;20102;-72
2022/04/07 05:12:10;;;;;;;3.90;2.83;;;;;;;;;;5135515;27;20007;-75
2022/04/07 05:14:35;;;;;;;3.97;2.40;;;;;;;;;;5134955;27;20011;-75
2022/04/07 05:17:01;;;;;;;3.95;2.92;;;;;;;;;;5135830;27;20019;-76
2022/04/07 05:19:26;;;;;;;8.50;4.07;;;;;;;;;;5139924;27;20031;-76
2022/04/07 05:21:51;;;;;;;8.07;4.15;;;;;;;;;;5137360;27;20080;-75
2022/04/07 05:24:18;;;;;;;6.32;4.13;;;;;;;;;;5133418;27;20025;-75
2022/04/07 05:26:43;;;;;;;7.50;3.75;;;;;;;;;;5114100;27;20111;-75
2022/04/07 05:29:09;;;;;;;8.55;3.75;;;;;;;;;;5112904;28;20130;-75
2022/04/07 05:31:34;;;;;;;7.22;3.75;;;;;;;;;;5114129;28;20015;-75
2022/04/07 05:33:59;;;;;;;5.63;3.17;;;;;;;;;;5113670;28;20020;-76
2022/04/07 05:36:26;;;;;;;4.57;3.05;;;;;;;;;;5113921;28;20263;-75
2022/04/07 05:38:51;;;;;;;6.32;4.20;;;;;;;;;;5114101;28;20028;-73
2022/04/07 05:41:16;;;;;;;8.98;4.85;;;;;;;;;;5114632;28;20027;-74
2022/04/07 05:43:41;;;;;;;6.75;4.18;;;;;;;;;;5112466;28;20106;-77
2022/04/07 05:46:07;;;;;;;7.22;4.32;;;;;;;;;;5115176;27;20033;-79
2022/04/07 05:48:32;;;;;;;6.70;4.68;;;;;;;;;;5131987;27;20011;-74
2022/04/07 05:50:57;;;;;;;9.05;5.28;;;;;;;;;;5128819;27;20385;-76
2022/04/07 05:53:23;;;;;;;6.78;4.70;;;;;;;;;;5115600;28;20080;-76
2022/04/07 05:55:48;;;;;;;7.45;4.70;;;;;;;;;;5114135;28;20015;-75
2022/04/07 05:58:15;;;;;;;13.32;6.32;;;;;;;;;;5116131;28;20080;-76
2022/04/07 06:00:41;;;;;;;7.38;4.65;;;;;;;;;;5119802;28;20027;-75
2022/04/07 06:03:06;;;;;;;8.65;4.88;;;;;;;;;;5120867;27;20011;-76
2022/04/07 06:05:31;;;;;;;9.30;4.70;;;;;;;;;;5134121;27;20434;-79
2022/04/07 06:07:58;;;;;;;7.72;4.65;;;;;;;;;;5132404;27;20023;-78
2022/04/07 06:10:23;;;;;;;9.45;5.28;;;;;;;;;;5132501;27;20034;-77
2022/04/07 06:12:49;;;;;;;7.75;5.03;;;;;;;;;;5134500;27;20020;-75
2022/04/07 06:15:15;;;;;;;8.90;6.18;;;;;;;;;;5132113;27;20900;-77
2022/04/07 06:17:41;;;;;;;7.78;5.20;;;;;;;;;;5129620;27;20019;-76
2022/04/07 06:20:07;;;;;;;11.48;6.03;;;;;;;;;;5123207;27;20107;-77
2022/04/07 06:22:33;;;;;;;8.90;5.78;;;;;;;;;;5122931;27;20110;-73
2022/04/07 06:24:58;;;;;;;8.15;5.07;;;;;;;;;;5119915;27;20169;-76
2022/04/07 06:27:23;;;;;;;8.00;5.07;;;;;;;;;;5124438;27;20015;-77
2022/04/07 06:29:49;;;;;;;9.57;5.22;;;;;;;;;;5121690;27;20523;-75
2022/04/07 06:32:14;;;;;;;9.63;4.78;;;;;;;;;;5131000;27;20019;-76
2022/04/07 06:34:39;;;;;;;8.63;4.68;;;;;;;;;;5133792;27;20050;-76
2022/04/07 06:37:05;;;;;;;9.73;5.97;;;;;;;;;;5133033;27;20042;-75
2022/04/07 06:39:30;;;;;;;8.60;5.03;;;;;;;;;;5128791;27;20034;-75
2022/04/07 06:41:55;;;;;;;8.20;4.80;;;;;;;;;;5113333;28;20046;-76
2022/04/07 06:44:20;;;;;;;6.47;4.40;;;;;;;;;;5112668;28;20256;-76
2022/04/07 06:46:45;;;;;;;12.13;6.17;;;;;;;;;;5112390;28;20274;-74
2022/04/07 06:49:11;;;;;;;7.75;4.97;;;;;;;;;;5111458;28;20628;-75
2022/04/07 06:51:36;;;;;;;11.63;6.10;;;;;;;;;;5113525;28;20024;-76
2022/04/07 06:54:01;;;;;;;10.17;5.77;;;;;;;;;;5112533;28;20027;-77
2022/04/07 06:56:26;;;;;;;8.80;5.53;;;;;;;;;;5112301;28;20309;-75
2022/04/07 06:58:53;;;;;;;7.15;5.38;;;;;;;;;;5112287;28;20279;-74
2022/04/07 07:01:18;;;;;;;11.20;5.45;;;;;;;;;;5111757;28;20118;-75
2022/04/07 07:03:43;;;;;;;10.15;5.72;;;;;;;;;;5110792;28;20114;-75
2022/04/07 07:06:08;;;;;;;16.55;5.80;;;;;;;;;;5112177;28;20016;-75
2022/04/07 07:08:34;;;;;;;6.77;4.90;;;;;;;;;;5111985;28;20027;-75
2022/04/07 07:10:59;;;;;;;7.33;4.53;;;;;;;;;;5111317;28;20256;-75
2022/04/07 07:13:24;;;;;;;8.30;4.88;;;;;;;;;;5112874;28;20276;-75
2022/04/07 07:15:49;;;;;;;7.10;4.32;;;;;;;;;;5110923;28;20437;-76
2022/04/07 07:18:15;;;;;;;9.30;4.75;;;;;;;;;;5111763;28;20029;-76
2022/04/07 07:20:41;;;;;;;7.55;4.80;;;;;;;;;;5117719;27;20026;-81
2022/04/07 07:23:07;;;;;;;7.57;5.50;;;;;;;;;;5118775;27;20148;-75
2022/04/07 07:25:32;;;;;;;9.50;5.68;;;;;;;;;;5119329;27;20023;-80
2022/04/07 07:27:58;;;;;;;6.72;5.05;;;;;;;;;;5121661;27;20030;-76
2022/04/07 07:30:25;;;;;;;11.05;5.75;;;;;;;;;;5128080;27;20018;-76
2022/04/07 07:32:51;;;;;;;7.53;5.63;;;;;;;;;;5123997;27;20049;-78
2022/04/07 07:35:17;;;;;;;9.05;5.60;;;;;;;;;;5124400;27;20110;-77
2022/04/07 07:37:48;;;;;;;9.32;5.60;;;;;;;;;;5130479;27;20727;-75
2022/04/07 07:40:14;;;;;;;10.10;5.53;;;;;;;;;;5109829;28;20028;-76
2022/04/07 07:42:40;;;;;;;6.85;4.35;;;;;;;;;;5110470;28;20375;-74
2022/04/07 07:45:05;;;;;;;10.70;5.05;;;;;;;;;;5115350;28;20066;-76
2022/04/07 07:47:31;;;;;;;7.82;4.40;;;;;;;;;;5111230;28;20047;-80
2022/04/07 07:49:56;;;;;;;8.77;5.07;;;;;;;;;;5112275;28;20023;-79
2022/04/07 07:52:21;;;;;;;7.40;4.70;;;;;;;;;;5131513;27;20019;-75
2022/04/07 07:54:47;;;;;;;8.00;4.30;;;;;;;;;;5131579;27;20732;-77
2022/04/07 07:57:12;;;;;;;7.20;4.65;;;;;;;;;;5131476;27;20069;-75
2022/04/07 07:59:37;;;;;;;6.60;4.35;;;;;;;;;;5132262;27;20034;-76
2022/04/07 08:02:03;;;;;;;10.65;4.60;;;;;;;;;;5131615;27;20498;-76
2022/04/07 08:04:28;;;;;;;6.20;4.00;;;;;;;;;;5132358;27;20015;-75
2022/04/07 08:06:53;;;;;;;7.57;4.25;;;;;;;;;;5131879;27;20019;-75
2022/04/07 08:09:19;;;;;;;8.33;5.17;;;;;;;;;;5130572;27;20100;-75
2022/04/07 08:11:44;;;;;;;5.90;3.80;;;;;;;;;;5136115;27;20092;-74
2022/04/07 08:14:09;;;;;;;6.20;4.23;;;;;;;;;;5136464;27;20063;-77
2022/04/07 08:16:35;;;;;;;7.95;5.18;;;;;;;;;;5136782;27;20142;-84
2022/04/07 08:19:01;;;;;;;6.80;4.15;;;;;;;;;;5126892;27;20039;-79
2022/04/07 08:21:26;;;;;;;8.23;4.50;;;;;;;;;;5118021;27;20164;-77
2022/04/07 08:23:52;;;;;;;9.18;4.43;;;;;;;;;;5114309;28;20116;-76
2022/04/07 08:26:17;;;;;;;7.03;4.47;;;;;;;;;;5113908;27;20023;-71
2022/04/07 08:28:42;;;;;;;6.35;4.07;;;;;;;;;;5122590;27;20019;-71
2022/04/07 08:31:07;;;;;;;6.67;4.47;;;;;;;;;;5126007;27;20015;-72
2022/04/07 08:33:33;;;;;;;8.17;4.30;;;;;;;;;;5135303;27;20422;-71
2022/04/07 08:36:00;;;;;;;6.70;4.05;;;;;;;;;;5133933;27;20263;-70
2022/04/07 08:38:26;;;;;;;6.57;3.80;;;;;;;;;;5134431;27;20100;-71
2022/04/07 08:40:51;;;;;;;6.70;4.20;;;;;;;;;;5114911;28;20441;-71
2022/04/07 08:43:17;;;;;;;5.20;3.65;;;;;;;;;;5115280;28;20252;-71
2022/04/07 08:45:43;;;;;;;7.60;3.92;;;;;;;;;;5118438;27;20421;-71
2022/04/07 08:48:09;;;;;;;5.70;3.70;;;;;;;;;;5114779;27;20020;-72
2022/04/07 08:50:35;;;;;;;6.65;3.80;;;;;;;;;;5120260;27;20012;-70
2022/04/07 08:53:01;;;;;;;4.43;3.07;;;;;;;;;;5136141;27;20023;-71
2022/04/07 08:55:26;;;;;;;5.28;3.60;;;;;;;;;;5134157;27;20260;-71
2022/04/07 08:57:51;;;;;;;5.10;3.50;;;;;;;;;;5120552;27;20046;-71
2022/04/07 09:00:16;;;;;;;4.97;3.30;;;;;;;;;;5114182;28;20464;-71
2022/04/07 09:02:43;;;;;;;6.22;4.25;;;;;;;;;;5120866;27;20095;-71
2022/04/07 09:05:10;;;;;;;5.15;3.10;;;;;;;;;;5135678;27;20026;-79
2022/04/07 09:07:35;;;;;;;6.32;3.65;;;;;;;;;;5125576;27;20467;-80
2022/04/07 09:10:02;;;;;;;4.32;2.95;;;;;;;;;;5116419;27;20031;-80
2022/04/07 09:12:27;;;;;;;5.45;3.28;;;;;;;;;;5115577;27;20015;-75
2022/04/07 09:14:59;;;;;;;6.50;3.20;;;;;;;;;;5128793;27;20048;-79
2022/04/07 09:17:26;;;;;;;4.70;2.83;;;;;;;;;;5126468;27;20110;-78
2022/04/07 09:19:51;;;;;;;4.18;2.58;;;;;;;;;;5135164;27;20039;-79
2022/04/07 09:22:16;;;;;;;4.82;2.75;;;;;;;;;;5122444;27;20472;-80
2022/04/07 09:24:42;;;;;;;4.50;2.83;;;;;;;;;;5116817;27;20381;-80
2022/04/07 09:27:09;;;;;;;5.63;2.63;;;;;;;;;;5114478;27;20043;-78
2022/04/07 09:29:41;;;;;;;4.95;3.05;;;;;;;;;;5131909;27;20015;-77
2022/04/07 09:32:17;;;;;;;4.55;2.80;;;;;;;;;;5134793;27;20116;-76
2022/04/07 09:34:43;;;;;;;3.45;2.58;;;;;;;;;;5126517;27;20477;-80
2022/04/07 09:37:09;;;;;;;3.50;2.40;;;;;;;;;;5114635;28;20106;-77
2022/04/07 09:39:36;;;;;;;3.45;2.47;;;;;;;;;;5116502;28;20114;-79
2022/04/07 09:42:22;;;;;;;3.47;2.47;;;;;;;;;;5122014;28;20024;-80
2022/04/07 09:44:51;;;;;;;5.10;2.60;;;;;;;;;;5114256;28;20031;-77
2022/04/07 09:47:17;;;;;;;5.15;2.42;;;;;;;;;;5114050;28;20063;-76
2022/04/07 09:49:42;;;;;;;3.20;2.30;;;;;;;;;;5113957;28;20024;-78
2022/04/07 09:52:09;;;;;;;3.67;2.28;;;;;;;;;;5121295;27;21775;-76
2022/04/07 09:54:35;;;;;;;3.90;2.53;;;;;;;;;;5125339;27;20020;-79
2022/04/07 09:57:03;;;;;;;5.88;2.85;;;;;;;;;;5119389;27;20015;-77
2022/04/07 09:59:29;;;;;;;3.72;2.50;;;;;;;;;;5124498;27;20071;-80
2022/04/07 10:01:55;;;;;;;4.25;2.80;;;;;;;;;;5115262;27;20508;-79
2022/04/07 10:04:22;;;;;;;4.60;2.38;;;;;;;;;;5117222;27;20384;-79
2022/04/07 10:06:47;;;;;;;5.45;2.53;;;;;;;;;;5127463;27;20024;-79
2022/04/07 10:09:13;;;;;;;5.28;2.55;;;;;;;;;;5112533;28;20031;-79
2022/04/07 10:11:39;;;;;;;3.40;2.40;;;;;;;;;;5115855;27;20464;-71
2022/04/07 10:14:04;;;;;;;4.90;2.95;;;;;;;;;;5125765;27;20019;-71
2022/04/07 10:16:30;;;;;;;4.03;2.90;;;;;;;;;;5121239;27;20059;-70
2022/04/07 10:19:04;;;;;;;3.83;2.70;;;;;;;;;;5125282;27;20332;-72
2022/04/07 10:21:38;;;;;;;3.70;2.40;;;;;;;;;;5133325;27;20735;-71
2022/04/07 10:24:22;;;;;;;2.83;2.08;;;;;;;;;;5121503;27;20035;-71
2022/04/07 10:26:48;;;;;;;3.65;2.67;;;;;;;;;;5112838;28;20153;-71
2022/04/07 10:29:21;;;;;;;3.47;2.45;;;;;;;;;;5114860;27;20110;-71
2022/04/07 10:32:04;;;;;;;3.50;2.40;;;;;;;;;;5112782;27;20156;-70
2022/04/07 10:34:33;;;;;;;3.42;2.25;;;;;;;;;;5127819;27;20392;-71
2022/04/07 10:37:07;;;;;;;4.38;2.70;;;;;;;;;;5126943;27;20020;-73
2022/04/07 10:39:33;;;;;;;4.00;2.35;;;;;;;;;;5112806;28;20118;-72
2022/04/07 10:41:58;;;;;;;3.63;2.17;;;;;;;;;;5119583;27;20118;-72
2022/04/07 10:44:25;;;;;;;3.13;2.25;;;;;;;;;;5122531;27;20631;-72
2022/04/07 10:47:01;;;;;;;2.85;1.85;;;;;;;;;;5116041;27;20043;-72
2022/04/07 10:49:27;;;;;;;3.25;2.10;;;;;;;;;;5126534;27;20027;-72
2022/04/07 10:51:53;;;;;;;2.92;1.73;;;;;;;;;;5112338;28;20737;-72
2022/04/07 10:54:19;;;;;;;3.35;2.30;;;;;;;;;;5112086;28;20075;-72
2022/04/07 10:56:49;;;;;;;3.03;2.15;;;;;;;;;;5112311;28;20445;-72
2022/04/07 10:59:17;;;;;;;5.60;2.90;;;;;;;;;;5112153;28;20031;-74
2022/04/07 11:01:42;;;;;;;6.53;2.53;;;;;;;;;;5116976;27;20015;-74
2022/04/07 11:04:20;;;;;;;3.35;2.10;;;;;;;;;;5120871;27;20080;-74
2022/04/07 11:09:49;;;;;;;2.90;1.90;;;;;;;;;;5102395;27;20019;-75
2022/04/07 11:12:22;;;;;;;3.78;2.28;;;;;;;;;;5116882;27;20034;-74
2022/04/07 11:14:48;;;;;;;3.83;2.33;;;;;;;;;;5131236;27;20130;-74
2022/04/07 11:17:20;;;;;;;4.45;2.72;;;;;;;;;;5131989;27;20114;-74
2022/04/07 11:20:05;;;;;;;3.97;2.60;;;;;;;;;;5132180;27;20118;-74
2022/04/07 11:22:50;;;;;;;3.40;2.30;;;;;;;;;;5132517;27;20096;-74
2022/04/07 11:25:29;;;;;;;2.30;1.80;;;;;;;;;;5132353;27;20019;-73
2022/04/07 11:28:03;;;;;;;3.97;2.60;;;;;;;;;;5133883;27;20019;-74
2022/04/07 11:30:38;;;;;;;4.35;3.28;;;;;;;;;;5132338;27;20490;-72
2022/04/07 11:33:19;;;;;;;2.83;2.05;;;;;;;;;;5132261;27;20034;-73
2022/04/07 11:36:14;;;;;;;2.83;2.08;;;;;;;;;;5111000;27;20043;-73
2022/04/07 11:38:43;;;;;;;3.38;2.08;;;;;;;;;;5097904;28;20046;-74
2022/04/07 11:41:14;;;;;;;2.60;1.90;;;;;;;;;;5111676;28;20392;-73
2022/04/07 11:43:40;;;;;;;2.95;2.05;;;;;;;;;;5110333;28;20153;-73
2022/04/07 11:46:06;;;;;;;2.65;2.03;;;;;;;;;;5111902;28;20065;-73
2022/04/07 11:48:32;;;;;;;3.10;2.25;;;;;;;;;;5112153;28;20031;-73
2022/04/07 11:51:00;;;;;;;2.85;2.08;;;;;;;;;;5115628;28;20089;-74
2022/04/07 11:53:29;;;;;;;5.35;2.50;;;;;;;;;;5116927;28;20019;-73
2022/04/07 11:55:54;;;;;;;2.80;2.10;;;;;;;;;;5110302;28;20023;-74
2022/04/07 11:58:20;;;;;;;3.10;2.00;;;;;;;;;;5111231;28;20069;-74
2022/04/07 12:00:45;;;;;;;2.72;2.00;;;;;;;;;;5109971;28;20042;-73
2022/04/07 12:03:10;;;;;;;2.70;2.00;;;;;;;;;;5110045;28;20027;-73
2022/04/07 12:05:36;;;;;;;3.88;2.30;;;;;;;;;;5110978;28;20376;-74
2022/04/07 12:08:05;;;;;;;2.95;2.10;;;;;;;;;;5110840;28;20365;-73
2022/04/07 12:10:30;;;;;;;3.03;2.13;;;;;;;;;;5109720;28;20027;-72
2022/04/07 12:12:56;;;;;;;2.90;2.22;;;;;;;;;;5112272;28;20091;-72
2022/04/07 12:15:21;;;;;;;3.78;2.40;;;;;;;;;;5109644;28;20039;-74
2022/04/07 12:17:59;;;;;;;3.97;2.42;;;;;;;;;;5110795;28;20036;-72
2022/04/07 12:20:24;;;;;;;3.67;2.50;;;;;;;;;;5111380;28;20410;-72
2022/04/07 12:23:02;;;;;;;4.10;2.38;;;;;;;;;;5111280;28;20027;-73
2022/04/07 12:25:27;;;;;;;2.88;2.05;;;;;;;;;;5111123;28;20376;-74
2022/04/07 12:28:05;;;;;;;5.95;3.17;;;;;;;;;;5109316;28;20022;-73
2022/04/07 12:30:50;;;;;;;4.00;2.55;;;;;;;;;;5109678;28;20088;-73
2022/04/07 12:33:34;;;;;;;3.50;2.17;;;;;;;;;;5121063;28;20016;-73
2022/04/07 12:36:00;;;;;;;4.10;2.20;;;;;;;;;;5121439;28;20042;-74
2022/04/07 12:38:25;;;;;;;3.57;2.20;;;;;;;;;;5117916;28;20007;-73
2022/04/07 12:40:50;;;;;;;7.72;2.28;;;;;;;;;;5119355;28;20275;-74
2022/04/07 12:43:15;;;;;;;3.67;2.30;;;;;;;;;;5112730;28;20019;-73
2022/04/07 12:46:08;;;;;;;4.43;2.10;;;;;;;;;;5110959;28;20110;-74
2022/04/07 12:48:34;;;;;;;3.47;2.10;;;;;;;;;;5114263;28;20027;-73
2022/04/07 12:51:00;;;;;;;2.63;2.03;;;;;;;;;;5116965;28;20070;-74
2022/04/07 12:53:26;;;;;;;3.08;2.20;;;;;;;;;;5114874;28;20050;-76
2022/04/07 12:55:51;;;;;;;2.80;2.08;;;;;;;;;;5117782;27;20365;-76
2022/04/07 12:58:25;;;;;;;5.03;2.63;;;;;;;;;;5105081;27;20023;-75
2022/04/07 13:00:57;;;;;;;3.75;2.33;;;;;;;;;;5122605;27;20797;-76
2022/04/07 13:03:22;;;;;;;3.85;2.40;;;;;;;;;;5125357;27;20452;-74
2022/04/07 13:05:48;;;;;;;5.95;2.45;;;;;;;;;;5122443;27;20027;-75
2022/04/07 13:08:14;;;;;;;3.75;2.13;;;;;;;;;;5124469;27;20015;-74
2022/04/07 13:10:40;;;;;;;3.88;2.58;;;;;;;;;;5124942;27;20376;-74
2022/04/07 13:13:05;;;;;;;2.72;1.92;;;;;;;;;;5124387;27;20381;-74
2022/04/07 13:15:31;;;;;;;2.47;1.77;;;;;;;;;;5121671;27;20046;-74
2022/04/07 13:17:56;;;;;;;3.25;2.08;;;;;;;;;;5124565;27;20267;-74
2022/04/07 13:20:21;;;;;;;3.83;2.47;;;;;;;;;;5122785;27;20023;-76
2022/04/07 13:22:48;;;;;;;2.73;1.90;;;;;;;;;;5121831;27;20259;-75
2022/04/07 13:25:13;;;;;;;3.97;2.00;;;;;;;;;;5121384;27;20256;-75
2022/04/07 13:27:42;;;;;;;3.85;2.30;;;;;;;;;;5124123;27;20053;-76
2022/04/07 13:30:08;;;;;;;2.92;2.08;;;;;;;;;;5124511;27;20556;-76
2022/04/07 13:32:33;;;;;;;3.83;2.15;;;;;;;;;;5122088;27;20015;-75
2022/04/07 13:34:58;;;;;;;3.30;2.30;;;;;;;;;;5123927;27;20019;-75
2022/04/07 13:37:24;;;;;;;2.75;1.85;;;;;;;;;;5121698;27;20039;-76
2022/04/07 13:39:49;;;;;;;2.80;2.00;;;;;;;;;;5124428;27;20027;-74
2022/04/07 13:42:14;;;;;;;4.70;2.65;;;;;;;;;;5122033;27;20305;-80
2022/04/07 13:44:39;;;;;;;3.67;2.05;;;;;;;;;;5125166;27;20012;-78
2022/04/07 13:47:07;;;;;;;5.55;2.20;;;;;;;;;;5122495;27;20065;-76
2022/04/07 13:49:32;;;;;;;4.22;2.10;;;;;;;;;;5123113;27;20011;-77
2022/04/07 13:52:00;;;;;;;3.78;2.05;;;;;;;;;;5119967;27;20031;-76
2022/04/07 13:54:26;;;;;;;3.72;1.95;;;;;;;;;;5121987;27;20023;-77
2022/04/07 13:56:51;;;;;;;3.53;2.30;;;;;;;;;;5123631;27;20064;-75
2022/04/07 13:59:16;;;;;;;3.03;2.00;;;;;;;;;;5122403;27;20043;-74
2022/04/07 14:01:41;;;;;;;3.13;2.00;;;;;;;;;;5128538;27;20011;-76
2022/04/07 14:04:07;;;;;;;3.05;2.08;;;;;;;;;;5125794;27;20267;-70
2022/04/07 14:06:32;;;;;;;4.20;2.17;;;;;;;;;;5113276;28;20023;-70
2022/04/07 14:08:58;;;;;;;2.95;1.80;;;;;;;;;;5111707;27;20292;-70
2022/04/07 14:11:23;;;;;;;3.88;2.10;;;;;;;;;;5113744;28;20027;-69
2022/04/07 14:13:49;;;;;;;2.47;1.80;;;;;;;;;;5113504;28;20096;-70
2022/04/07 14:16:14;;;;;;;3.53;2.00;;;;;;;;;;5113047;28;20055;-73
2022/04/07 14:18:39;;;;;;;2.83;2.00;;;;;;;;;;5112765;28;20023;-72
2022/04/07 14:21:05;;;;;;;2.92;1.88;;;;;;;;;;5113131;27;20072;-72
2022/04/07 14:23:31;;;;;;;2.75;1.77;;;;;;;;;;5112743;27;20028;-73
2022/04/07 14:25:56;;;;;;;2.97;2.00;;;;;;;;;;5117176;27;20105;-73
2022/04/07 14:28:22;;;;;;;2.90;1.80;;;;;;;;;;5120192;27;20027;-76
2022/04/07 14:30:50;;;;;;;2.13;1.60;;;;;;;;;;5117192;27;20111;-76
2022/04/07 14:33:16;;;;;;;2.63;1.85;;;;;;;;;;5115965;27;20567;-73
2022/04/07 14:35:42;;;;;;;2.72;2.00;;;;;;;;;;5113011;27;20023;-78
2022/04/07 14:38:09;;;;;;;2.78;2.17;;;;;;;;;;5130174;27;20022;-75
2022/04/07 14:40:34;;;;;;;3.42;2.22;;;;;;;;;;5122902;27;20119;-76
2022/04/07 14:43:00;;;;;;;4.45;2.15;;;;;;;;;;5113075;28;20076;-75